sensor_id;sensor_type;location;lat;lon;timestamp;temperature;humidity
66337;SHT30;53139;45.576;5.304;2023-06-04T08:48:52;20.63;85.26
66337;SHT30;53139;45.576;5.304;2023-06-04T08:51:56;20.67;85.25
66337;SHT30;53139;45.576;5.304;2023-06-04T08:55:06;20.74;88.77
66337;SHT30;53139;45.576;5.304;2023-06-04T09:35:27;22.86;83.74
66337;SHT30;53139;45.576;5.304;2023-06-04T10:11:47;22.82;82.25
66337;SHT30;53139;45.576;5.304;2023-06-04T10:44:08;23.79;78.21
66337;SHT30;53139;45.576;5.304;2023-06-04T10:48:12;23.34;78.34
66337;SHT30;53139;45.576;5.304;2023-06-04T10:51:54;23.06;79.43
66337;SHT30;53139;45.576;5.304;2023-06-04T11:09:51;25.02;79.81
66337;SHT30;53139;45.576;5.304;2023-06-04T11:17:34;25.31;72.34
66337;SHT30;53139;45.576;5.304;2023-06-04T16:10:33;26.21;66.60
66337;SHT30;53139;45.576;5.304;2023-06-04T16:13:37;25.41;68.89
66337;SHT30;53139;45.576;5.304;2023-06-04T16:16:37;25.30;68.24
66337;SHT30;53139;45.576;5.304;2023-06-04T16:19:38;25.03;68.20
66337;SHT30;53139;45.576;5.304;2023-06-04T16:22:41;25.34;68.43
66337;SHT30;53139;45.576;5.304;2023-06-04T16:25:42;25.26;68.71
66337;SHT30;53139;45.576;5.304;2023-06-04T16:40:50;23.99;73.15
66337;SHT30;53139;45.576;5.304;2023-06-04T16:43:50;23.93;74.73
66337;SHT30;53139;45.576;5.304;2023-06-04T16:46:51;23.70;75.38
66337;SHT30;53139;45.576;5.304;2023-06-04T16:49:52;23.70;77.91
66337;SHT30;53139;45.576;5.304;2023-06-04T16:52:52;23.69;75.60
66337;SHT30;53139;45.576;5.304;2023-06-04T16:55:53;23.46;76.13
66337;SHT30;53139;45.576;5.304;2023-06-04T16:58:56;23.34;76.48
66337;SHT30;53139;45.576;5.304;2023-06-04T17:02:00;23.24;77.01
66337;SHT30;53139;45.576;5.304;2023-06-04T17:05:01;22.96;78.57
66337;SHT30;53139;45.576;5.304;2023-06-04T17:08:01;22.77;77.90
66337;SHT30;53139;45.576;5.304;2023-06-04T17:11:02;22.55;77.74
66337;SHT30;53139;45.576;5.304;2023-06-04T17:14:02;22.51;76.84
66337;SHT30;53139;45.576;5.304;2023-06-04T17:17:03;22.55;71.98
66337;SHT30;53139;45.576;5.304;2023-06-04T17:20:04;22.45;72.81
66337;SHT30;53139;45.576;5.304;2023-06-04T17:23:22;22.42;75.09
66337;SHT30;53139;45.576;5.304;2023-06-04T17:26:23;22.44;69.82
66337;SHT30;53139;45.576;5.304;2023-06-04T17:29:23;22.46;72.44
66337;SHT30;53139;45.576;5.304;2023-06-04T17:32:24;22.25;70.88
66337;SHT30;53139;45.576;5.304;2023-06-04T17:35:30;22.08;72.57
66337;SHT30;53139;45.576;5.304;2023-06-04T17:38:30;21.86;74.62
66337;SHT30;53139;45.576;5.304;2023-06-04T17:41:31;21.57;76.14
66337;SHT30;53139;45.576;5.304;2023-06-04T17:44:31;21.45;71.72
66337;SHT30;53139;45.576;5.304;2023-06-04T17:47:33;21.22;71.56
66337;SHT30;53139;45.576;5.304;2023-06-04T17:50:35;21.27;71.93
66337;SHT30;53139;45.576;5.304;2023-06-04T17:53:36;21.14;71.27
